sensor_id;sensor_type;location;lat;lon;timestamp;pressure;altitude;pressure_sealevel;temperature;humidity
14242;BME280;7205;50.864;12.766;2022-09-12T00:01:57;97830.09;;;14.60;100.00
14242;BME280;7205;50.864;12.766;2022-09-12T00:04:24;97826.66;;;14.66;100.00
14242;BME280;7205;50.864;12.766;2022-09-12T00:06:53;97832.00;;;14.73;100.00
14242;BME280;7205;50.864;12.766;2022-09-12T00:09:19;97823.44;;;14.77;100.00
14242;BME280;7205;50.864;12.766;2022-09-12T00:11:47;97817.72;;;14.80;100.00
14242;BME280;7205;50.864;12.766;2022-09-12T00:14:16;97820.19;;;14.82;100.00
14242;BME280;7205;50.864;12.766;2022-09-12T00:16:44;97823.47;;;14.84;100.00
14242;BME280;7205;50.864;12.766;2022-09-12T00:19:11;97819.81;;;14.85;100.00
14242;BME280;7205;50.864;12.766;2022-09-12T00:21:39;97819.19;;;14.83;100.00
14242;BME280;7205;50.864;12.766;2022-09-12T00:24:06;97815.06;;;14.80;100.00
14242;BME280;7205;50.864;12.766;2022-09-12T00:26:34;97807.88;;;14.74;100.00
14242;BME280;7205;50.864;12.766;2022-09-12T00:29:02;97807.66;;;14.69;100.00
14242;BME280;7205;50.864;12.766;2022-09-12T00:31:29;97802.31;;;14.63;100.00
14242;BME280;7205;50.864;12.766;2022-09-12T00:33:58;97804.09;;;14.56;100.00
14242;BME280;7205;50.864;12.766;2022-09-12T00:36:27;97801.59;;;14.48;100.00
14242;BME280;7205;50.864;12.766;2022-09-12T00:38:54;97791.94;;;14.40;100.00
14242;BME280;7205;50.864;12.766;2022-09-12T00:41:23;97795.59;;;14.33;100.00
14242;BME280;7205;50.864;12.766;2022-09-12T00:43:51;97797.53;;;14.24;100.00
14242;BME280;7205;50.864;12.766;2022-09-12T00:46:26;97799.53;;;14.16;100.00
14242;BME280;7205;50.864;12.766;2022-09-12T00:48:56;97798.22;;;14.05;100.00
14242;BME280;7205;50.864;12.766;2022-09-12T00:51:25;97795.69;;;13.97;100.00
14242;BME280;7205;50.864;12.766;2022-09-12T00:53:52;97795.84;;;13.89;100.00
14242;BME280;7205;50.864;12.766;2022-09-12T00:56:21;97796.78;;;13.81;100.00
14242;BME280;7205;50.864;12.766;2022-09-12T00:58:54;97792.63;;;13.72;100.00
14242;BME280;7205;50.864;12.766;2022-09-12T01:01:24;97796.22;;;13.65;100.00
14242;BME280;7205;50.864;12.766;2022-09-12T01:03:51;97794.56;;;13.57;100.00
14242;BME280;7205;50.864;12.766;2022-09-12T01:06:21;97797.94;;;13.51;100.00
14242;BME280;7205;50.864;12.766;2022-09-12T01:08:51;97791.78;;;13.44;100.00
14242;BME280;7205;50.864;12.766;2022-09-12T01:11:20;97788.88;;;13.39;100.00
14242;BME280;7205;50.864;12.766;2022-09-12T01:13:48;97791.25;;;13.34;100.00
14242;BME280;7205;50.864;12.766;2022-09-12T01:16:16;97784.03;;;13.28;100.00
14242;BME280;7205;50.864;12.766;2022-09-12T01:18:56;97785.63;;;13.23;100.00
14242;BME280;7205;50.864;12.766;2022-09-12T01:21:34;97786.38;;;13.17;100.00
14242;BME280;7205;50.864;12.766;2022-09-12T01:27:29;97780.28;;;13.02;100.00
14242;BME280;7205;50.864;12.766;2022-09-12T01:30:06;97784.91;;;13.00;100.00
14242;BME280;7205;50.864;12.766;2022-09-12T01:32:43;97786.13;;;12.97;100.00
14242;BME280;7205;50.864;12.766;2022-09-12T01:35:17;97783.03;;;12.94;100.00
14242;BME280;7205;50.864;12.766;2022-09-12T01:37:53;97780.56;;;12.92;100.00
14242;BME280;7205;50.864;12.766;2022-09-12T01:40:30;97777.28;;;12.90;100.00
14242;BME280;7205;50.864;12.766;2022-09-12T01:43:04;97776.63;;;12.88;100.00
14242;BME280;7205;50.864;12.766;2022-09-12T01:45:39;97772.53;;;12.86;100.00
14242;BME280;7205;50.864;12.766;2022-09-12T01:48:12;97769.44;;;12.82;100.00
14242;BME280;7205;50.864;12.766;2022-09-12T01:50:45;97768.97;;;12.79;100.00
14242;BME280;7205;50.864;12.766;2022-09-12T01:53:15;97777.50;;;12.74;100.00
14242;BME280;7205;50.864;12.766;2022-09-12T01:55:47;97775.38;;;12.70;100.00
14242;BME280;7205;50.864;12.766;2022-09-12T01:58:20;97781.06;;;12.67;100.00
14242;BME280;7205;50.864;12.766;2022-09-12T02:00:54;97781.06;;;12.67;100.00
14242;BME280;7205;50.864;12.766;2022-09-12T02:03:30;97778.78;;;12.63;100.00
14242;BME280;7205;50.864;12.766;2022-09-12T02:06:00;97785.72;;;12.64;100.00
14242;BME280;7205;50.864;12.766;2022-09-12T02:08:32;97779.41;;;12.66;100.00
14242;BME280;7205;50.864;12.766;2022-09-12T02:11:06;97771.47;;;12.66;100.00
14242;BME280;7205;50.864;12.766;2022-09-12T02:13:36;97783.50;;;12.68;100.00
14242;BME280;7205;50.864;12.766;2022-09-12T02:16:07;97772.09;;;12.68;100.00
14242;BME280;7205;50.864;12.766;2022-09-12T02:18:38;97774.91;;;12.66;100.00
14242;BME280;7205;50.864;12.766;2022-09-12T02:21:06;97775.13;;;12.64;100.00
14242;BME280;7205;50.864;12.766;2022-09-12T02:23:37;97774.66;;;12.61;100.00
14242;BME280;7205;50.864;12.766;2022-09-12T02:26:09;97780.31;;;12.58;100.00
14242;BME280;7205;50.864;12.766;2022-09-12T02:28:40;97771.13;;;12.54;100.00
14242;BME280;7205;50.864;12.766;2022-09-12T02:31:12;97779.22;;;12.52;100.00
14242;BME280;7205;50.864;12.766;2022-09-12T02:33:48;97771.84;;;12.48;100.00
14242;BME280;7205;50.864;12.766;2022-09-12T02:36:27;97774.03;;;12.44;100.00
14242;BME280;7205;50.864;12.766;2022-09-12T02:38:58;97772.59;;;12.42;100.00
14242;BME280;7205;50.864;12.766;2022-09-12T02:41:25;97775.22;;;12.42;100.00
14242;BME280;7205;50.864;12.766;2022-09-12T02:43:52;97780.53;;;12.42;100.00
14242;BME280;7205;50.864;12.766;2022-09-12T02:46:21;97778.69;;;12.42;100.00
14242;BME280;7205;50.864;12.766;2022-09-12T02:48:53;97781.34;;;12.42;100.00
14242;BME280;7205;50.864;12.766;2022-09-12T02:51:21;97774.88;;;12.45;100.00
14242;BME280;7205;50.864;12.766;2022-09-12T02:53:48;97776.75;;;12.51;100.00
14242;BME280;7205;50.864;12.766;2022-09-12T02:56:19;97770.94;;;12.55;100.00
14242;BME280;7205;50.864;12.766;2022-09-12T02:58:49;97771.22;;;12.60;100.00
14242;BME280;7205;50.864;12.766;2022-09-12T03:01:28;97778.59;;;12.65;100.00
14242;BME280;7205;50.864;12.766;2022-09-12T03:07:12;97766.34;;;12.79;100.00
14242;BME280;7205;50.864;12.766;2022-09-12T03:09:44;97763.56;;;12.87;100.00
14242;BME280;7205;50.864;12.766;2022-09-12T03:12:25;97767.56;;;12.97;100.00
14242;BME280;7205;50.864;12.766;2022-09-12T03:15:09;97768.13;;;13.07;100.00
14242;BME280;7205;50.864;12.766;2022-09-12T03:17:53;97767.63;;;13.18;100.00
14242;BME280;7205;50.864;12.766;2022-09-12T03:20:30;97765.47;;;13.28;100.00
14242;BME280;7205;50.864;12.766;2022-09-12T03:23:09;97758.41;;;13.35;100.00
14242;BME280;7205;50.864;12.766;2022-09-12T03:25:42;97761.75;;;13.44;100.00
14242;BME280;7205;50.864;12.766;2022-09-12T03:28:14;97760.78;;;13.51;100.00
14242;BME280;7205;50.864;12.766;2022-09-12T03:30:43;97758.22;;;13.58;100.00
14242;BME280;7205;50.864;12.766;2022-09-12T03:33:10;97753.97;;;13.63;100.00
14242;BME280;7205;50.864;12.766;2022-09-12T03:35:38;97756.69;;;13.70;100.00
14242;BME280;7205;50.864;12.766;2022-09-12T03:38:06;97767.72;;;13.73;100.00
14242;BME280;7205;50.864;12.766;2022-09-12T03:40:33;97762.03;;;13.76;100.00
14242;BME280;7205;50.864;12.766;2022-09-12T03:43:00;97754.72;;;13.78;100.00
14242;BME280;7205;50.864;12.766;2022-09-12T03:45:27;97760.84;;;13.79;100.00
14242;BME280;7205;50.864;12.766;2022-09-12T03:47:54;97760.00;;;13.78;100.00
14242;BME280;7205;50.864;12.766;2022-09-12T03:50:21;97761.03;;;13.77;100.00
14242;BME280;7205;50.864;12.766;2022-09-12T03:52:48;97754.28;;;13.75;100.00
14242;BME280;7205;50.864;12.766;2022-09-12T03:55:16;97756.91;;;13.75;100.00
14242;BME280;7205;50.864;12.766;2022-09-12T03:57:43;97762.44;;;13.73;100.00
14242;BME280;7205;50.864;12.766;2022-09-12T04:00:10;97766.09;;;13.72;100.00
14242;BME280;7205;50.864;12.766;2022-09-12T04:02:40;97755.50;;;13.72;100.00
14242;BME280;7205;50.864;12.766;2022-09-12T04:05:08;97761.63;;;13.73;100.00
14242;BME280;7205;50.864;12.766;2022-09-12T04:07:35;97757.31;;;13.72;100.00
14242;BME280;7205;50.864;12.766;2022-09-12T04:10:03;97757.69;;;13.69;100.00
14242;BME280;7205;50.864;12.766;2022-09-12T04:12:31;97761.75;;;13.65;100.00
14242;BME280;7205;50.864;12.766;2022-09-12T04:14:59;97756.56;;;13.57;100.00
14242;BME280;7205;50.864;12.766;2022-09-12T04:17:26;97763.66;;;13.50;100.00
14242;BME280;7205;50.864;12.766;2022-09-12T04:19:53;97756.00;;;13.40;100.00
14242;BME280;7205;50.864;12.766;2022-09-12T04:22:20;97755.31;;;13.32;100.00
14242;BME280;7205;50.864;12.766;2022-09-12T04:24:54;97764.44;;;13.23;100.00
14242;BME280;7205;50.864;12.766;2022-09-12T04:27:21;97757.41;;;13.15;100.00
14242;BME280;7205;50.864;12.766;2022-09-12T04:29:49;97761.00;;;13.08;100.00
14242;BME280;7205;50.864;12.766;2022-09-12T04:32:16;97759.91;;;13.02;100.00
14242;BME280;7205;50.864;12.766;2022-09-12T04:34:43;97763.25;;;12.96;100.00
14242;BME280;7205;50.864;12.766;2022-09-12T04:37:11;97769.13;;;12.92;100.00
14242;BME280;7205;50.864;12.766;2022-09-12T04:39:38;97773.00;;;12.89;100.00
14242;BME280;7205;50.864;12.766;2022-09-12T04:42:05;97773.97;;;12.88;100.00
14242;BME280;7205;50.864;12.766;2022-09-12T04:44:32;97770.34;;;12.89;100.00
14242;BME280;7205;50.864;12.766;2022-09-12T04:47:00;97770.59;;;12.94;100.00
14242;BME280;7205;50.864;12.766;2022-09-12T04:49:27;97775.16;;;13.00;100.00
14242;BME280;7205;50.864;12.766;2022-09-12T04:51:54;97770.59;;;13.09;100.00
14242;BME280;7205;50.864;12.766;2022-09-12T04:54:21;97766.81;;;13.18;100.00
14242;BME280;7205;50.864;12.766;2022-09-12T04:56:49;97766.69;;;13.26;100.00
14242;BME280;7205;50.864;12.766;2022-09-12T04:59:18;97777.16;;;13.34;100.00
14242;BME280;7205;50.864;12.766;2022-09-12T05:01:46;97769.66;;;13.37;100.00
14242;BME280;7205;50.864;12.766;2022-09-12T05:04:14;97762.34;;;13.39;100.00
14242;BME280;7205;50.864;12.766;2022-09-12T05:06:41;97765.00;;;13.39;100.00
14242;BME280;7205;50.864;12.766;2022-09-12T05:09:11;97758.03;;;13.38;100.00
14242;BME280;7205;50.864;12.766;2022-09-12T05:11:40;97762.94;;;13.41;100.00
14242;BME280;7205;50.864;12.766;2022-09-12T05:14:09;97765.84;;;13.46;100.00
14242;BME280;7205;50.864;12.766;2022-09-12T05:16:36;97764.91;;;13.54;100.00
14242;BME280;7205;50.864;12.766;2022-09-12T05:19:02;97768.06;;;13.64;100.00
14242;BME280;7205;50.864;12.766;2022-09-12T05:21:31;97775.50;;;13.75;100.00
14242;BME280;7205;50.864;12.766;2022-09-12T05:23:58;97773.13;;;13.86;100.00
14242;BME280;7205;50.864;12.766;2022-09-12T05:26:25;97770.97;;;13.97;100.00
14242;BME280;7205;50.864;12.766;2022-09-12T05:28:53;97773.50;;;14.05;100.00
14242;BME280;7205;50.864;12.766;2022-09-12T05:31:20;97780.50;;;14.12;100.00
14242;BME280;7205;50.864;12.766;2022-09-12T05:33:48;97787.69;;;14.18;100.00
14242;BME280;7205;50.864;12.766;2022-09-12T05:36:17;97784.25;;;14.24;100.00
14242;BME280;7205;50.864;12.766;2022-09-12T05:38:49;97788.63;;;14.32;100.00
14242;BME280;7205;50.864;12.766;2022-09-12T05:41:17;97789.88;;;14.36;100.00
14242;BME280;7205;50.864;12.766;2022-09-12T05:43:45;97789.91;;;14.42;100.00
14242;BME280;7205;50.864;12.766;2022-09-12T05:46:13;97795.47;;;14.47;100.00
14242;BME280;7205;50.864;12.766;2022-09-12T05:48:42;97786.91;;;14.52;100.00
14242;BME280;7205;50.864;12.766;2022-09-12T05:51:10;97798.38;;;14.59;100.00
14242;BME280;7205;50.864;12.766;2022-09-12T05:53:39;97792.31;;;14.65;100.00
14242;BME280;7205;50.864;12.766;2022-09-12T05:56:09;97798.44;;;14.72;100.00
14242;BME280;7205;50.864;12.766;2022-09-12T05:58:40;97800.13;;;14.79;100.00
14242;BME280;7205;50.864;12.766;2022-09-12T06:01:08;97807.31;;;14.85;100.00
14242;BME280;7205;50.864;12.766;2022-09-12T06:03:38;97799.75;;;14.89;100.00
14242;BME280;7205;50.864;12.766;2022-09-12T06:06:06;97806.13;;;14.94;100.00
14242;BME280;7205;50.864;12.766;2022-09-12T06:08:33;97798.38;;;14.99;100.00
14242;BME280;7205;50.864;12.766;2022-09-12T06:11:03;97804.75;;;15.05;100.00
14242;BME280;7205;50.864;12.766;2022-09-12T06:13:32;97801.50;;;15.09;100.00
14242;BME280;7205;50.864;12.766;2022-09-12T06:16:02;97803.53;;;15.14;100.00
14242;BME280;7205;50.864;12.766;2022-09-12T06:18:30;97802.75;;;15.20;100.00
14242;BME280;7205;50.864;12.766;2022-09-12T06:21:01;97808.31;;;15.25;100.00
14242;BME280;7205;50.864;12.766;2022-09-12T06:23:28;97814.44;;;15.32;100.00
14242;BME280;7205;50.864;12.766;2022-09-12T06:25:54;97816.31;;;15.38;100.00
14242;BME280;7205;50.864;12.766;2022-09-12T06:28:21;97813.06;;;15.43;100.00
14242;BME280;7205;50.864;12.766;2022-09-12T06:30:50;97813.50;;;15.46;100.00
14242;BME280;7205;50.864;12.766;2022-09-12T06:33:17;97810.00;;;15.46;100.00
14242;BME280;7205;50.864;12.766;2022-09-12T06:35:44;97816.56;;;15.43;100.00
14242;BME280;7205;50.864;12.766;2022-09-12T06:38:11;97811.25;;;15.43;100.00
14242;BME280;7205;50.864;12.766;2022-09-12T06:40:40;97805.91;;;15.43;100.00
14242;BME280;7205;50.864;12.766;2022-09-12T06:43:10;97806.75;;;15.44;100.00
14242;BME280;7205;50.864;12.766;2022-09-12T06:45:38;97801.22;;;15.45;100.00
14242;BME280;7205;50.864;12.766;2022-09-12T06:48:06;97806.53;;;15.45;100.00
14242;BME280;7205;50.864;12.766;2022-09-12T06:50:33;97806.34;;;15.47;100.00
14242;BME280;7205;50.864;12.766;2022-09-12T06:52:59;97800.41;;;15.45;100.00
14242;BME280;7205;50.864;12.766;2022-09-12T06:55:26;97809.00;;;15.47;100.00
14242;BME280;7205;50.864;12.766;2022-09-12T06:57:53;97807.16;;;15.47;100.00
14242;BME280;7205;50.864;12.766;2022-09-12T07:00:21;97804.09;;;15.44;100.00
14242;BME280;7205;50.864;12.766;2022-09-12T07:02:47;97799.97;;;15.41;100.00
14242;BME280;7205;50.864;12.766;2022-09-12T07:05:15;97804.84;;;15.38;100.00
14242;BME280;7205;50.864;12.766;2022-09-12T07:07:42;97810.16;;;15.38;100.00
14242;BME280;7205;50.864;12.766;2022-09-12T07:10:09;97803.84;;;15.39;100.00
14242;BME280;7205;50.864;12.766;2022-09-12T07:12:36;97812.28;;;15.42;100.00
14242;BME280;7205;50.864;12.766;2022-09-12T07:15:04;97809.22;;;15.45;100.00
14242;BME280;7205;50.864;12.766;2022-09-12T07:17:31;97813.91;;;15.50;100.00
14242;BME280;7205;50.864;12.766;2022-09-12T07:19:58;97808.19;;;15.53;100.00
14242;BME280;7205;50.864;12.766;2022-09-12T07:22:26;97814.75;;;15.57;100.00
14242;BME280;7205;50.864;12.766;2022-09-12T07:24:53;97811.47;;;15.61;100.00
14242;BME280;7205;50.864;12.766;2022-09-12T07:27:20;97815.19;;;15.67;100.00
14242;BME280;7205;50.864;12.766;2022-09-12T07:29:46;97810.91;;;15.72;100.00
14242;BME280;7205;50.864;12.766;2022-09-12T07:32:13;97812.72;;;15.78;100.00
14242;BME280;7205;50.864;12.766;2022-09-12T07:34:40;97816.81;;;15.81;100.00
14242;BME280;7205;50.864;12.766;2022-09-12T07:37:07;97811.69;;;15.86;100.00
14242;BME280;7205;50.864;12.766;2022-09-12T07:39:35;97813.16;;;15.88;100.00
14242;BME280;7205;50.864;12.766;2022-09-12T07:42:02;97816.22;;;15.92;100.00
14242;BME280;7205;50.864;12.766;2022-09-12T07:44:29;97817.44;;;15.96;100.00
14242;BME280;7205;50.864;12.766;2022-09-12T07:46:55;97815.19;;;15.99;100.00
14242;BME280;7205;50.864;12.766;2022-09-12T07:49:22;97813.56;;;16.05;100.00
14242;BME280;7205;50.864;12.766;2022-09-12T07:51:49;97809.28;;;16.10;100.00
14242;BME280;7205;50.864;12.766;2022-09-12T07:54:16;97818.25;;;16.16;100.00
14242;BME280;7205;50.864;12.766;2022-09-12T07:56:44;97818.28;;;16.22;100.00
14242;BME280;7205;50.864;12.766;2022-09-12T07:59:11;97820.94;;;16.29;100.00
14242;BME280;7205;50.864;12.766;2022-09-12T08:01:38;97819.91;;;16.37;100.00
14242;BME280;7205;50.864;12.766;2022-09-12T08:04:06;97813.13;;;16.41;100.00
14242;BME280;7205;50.864;12.766;2022-09-12T08:06:33;97821.16;;;16.47;100.00
14242;BME280;7205;50.864;12.766;2022-09-12T08:09:00;97819.28;;;16.54;100.00
14242;BME280;7205;50.864;12.766;2022-09-12T08:11:28;97821.75;;;16.62;100.00
14242;BME280;7205;50.864;12.766;2022-09-12T08:13:57;97821.50;;;16.70;100.00
14242;BME280;7205;50.864;12.766;2022-09-12T08:16:27;97822.53;;;16.76;100.00
14242;BME280;7205;50.864;12.766;2022-09-12T08:18:55;97820.25;;;16.86;100.00
14242;BME280;7205;50.864;12.766;2022-09-12T08:21:24;97820.63;;;16.96;100.00
14242;BME280;7205;50.864;12.766;2022-09-12T08:23:51;97824.84;;;17.10;100.00
14242;BME280;7205;50.864;12.766;2022-09-12T08:26:19;97825.63;;;17.23;100.00
14242;BME280;7205;50.864;12.766;2022-09-12T08:28:46;97819.41;;;17.36;100.00
14242;BME280;7205;50.864;12.766;2022-09-12T08:31:17;97821.22;;;17.48;98.65
14242;BME280;7205;50.864;12.766;2022-09-12T08:33:44;97822.78;;;17.63;96.59
14242;BME280;7205;50.864;12.766;2022-09-12T08:36:13;97825.75;;;17.79;95.17
14242;BME280;7205;50.864;12.766;2022-09-12T08:38:42;97813.50;;;17.96;93.88
14242;BME280;7205;50.864;12.766;2022-09-12T08:41:14;97816.91;;;18.10;91.43
14242;BME280;7205;50.864;12.766;2022-09-12T08:43:58;97829.53;;;18.21;88.72
14242;BME280;7205;50.864;12.766;2022-09-12T08:46:35;97827.56;;;18.34;86.41
14242;BME280;7205;50.864;12.766;2022-09-12T08:49:07;97830.81;;;18.43;84.72
14242;BME280;7205;50.864;12.766;2022-09-12T08:51:37;97831.38;;;18.51;83.68
14242;BME280;7205;50.864;12.766;2022-09-12T08:54:16;97829.69;;;18.57;83.01
14242;BME280;7205;50.864;12.766;2022-09-12T08:56:45;97829.53;;;18.70;82.20
14242;BME280;7205;50.864;12.766;2022-09-12T08:59:13;97831.69;;;18.80;82.17
14242;BME280;7205;50.864;12.766;2022-09-12T09:01:44;97823.97;;;18.90;80.85
14242;BME280;7205;50.864;12.766;2022-09-12T09:04:26;97828.13;;;19.04;80.52
14242;BME280;7205;50.864;12.766;2022-09-12T09:07:06;97821.09;;;19.21;80.06
14242;BME280;7205;50.864;12.766;2022-09-12T09:09:53;97824.84;;;19.38;79.07
14242;BME280;7205;50.864;12.766;2022-09-12T09:12:32;97811.25;;;19.51;78.04
14242;BME280;7205;50.864;12.766;2022-09-12T09:15:13;97815.41;;;19.65;77.30
14242;BME280;7205;50.864;12.766;2022-09-12T09:17:51;97817.38;;;19.69;75.23
14242;BME280;7205;50.864;12.766;2022-09-12T09:20:26;97816.88;;;19.61;74.44
14242;BME280;7205;50.864;12.766;2022-09-12T09:23:00;97813.59;;;19.47;74.15
14242;BME280;7205;50.864;12.766;2022-09-12T09:25:39;97818.31;;;19.34;74.26
14242;BME280;7205;50.864;12.766;2022-09-12T09:28:12;97813.91;;;19.21;73.92
14242;BME280;7205;50.864;12.766;2022-09-12T09:30:41;97810.09;;;19.11;73.62
14242;BME280;7205;50.864;12.766;2022-09-12T09:33:20;97818.69;;;19.01;74.07
14242;BME280;7205;50.864;12.766;2022-09-12T09:35:52;97813.09;;;19.03;74.84
14242;BME280;7205;50.864;12.766;2022-09-12T09:38:28;97812.66;;;19.06;74.99
14242;BME280;7205;50.864;12.766;2022-09-12T09:41:15;97808.03;;;19.13;75.18
14242;BME280;7205;50.864;12.766;2022-09-12T09:43:45;97806.19;;;19.31;75.67
14242;BME280;7205;50.864;12.766;2022-09-12T09:46:12;97809.88;;;19.48;75.29
14242;BME280;7205;50.864;12.766;2022-09-12T09:48:43;97802.97;;;19.70;75.09
14242;BME280;7205;50.864;12.766;2022-09-12T09:51:14;97803.50;;;20.02;74.28
14242;BME280;7205;50.864;12.766;2022-09-12T09:53:45;97800.28;;;20.35;72.20
14242;BME280;7205;50.864;12.766;2022-09-12T09:56:24;97793.03;;;20.70;70.04
14242;BME280;7205;50.864;12.766;2022-09-12T09:58:52;97795.94;;;21.03;67.95
14242;BME280;7205;50.864;12.766;2022-09-12T10:01:19;97790.03;;;21.29;66.16
14242;BME280;7205;50.864;12.766;2022-09-12T10:03:49;97788.88;;;21.53;63.48
14242;BME280;7205;50.864;12.766;2022-09-12T10:06:25;97792.19;;;21.72;61.71
14242;BME280;7205;50.864;12.766;2022-09-12T10:09:05;97797.53;;;21.83;60.59
14242;BME280;7205;50.864;12.766;2022-09-12T10:11:39;97796.25;;;21.74;59.69
14242;BME280;7205;50.864;12.766;2022-09-12T10:14:27;97784.69;;;21.46;60.46
14242;BME280;7205;50.864;12.766;2022-09-12T10:16:54;97786.16;;;21.25;60.17
14242;BME280;7205;50.864;12.766;2022-09-12T10:19:33;97775.03;;;20.93;60.83
14242;BME280;7205;50.864;12.766;2022-09-12T10:22:01;97785.34;;;20.73;61.43
14242;BME280;7205;50.864;12.766;2022-09-12T10:24:31;97783.38;;;20.46;61.76
14242;BME280;7205;50.864;12.766;2022-09-12T10:27:06;97783.69;;;20.15;62.17
14242;BME280;7205;50.864;12.766;2022-09-12T10:29:38;97785.75;;;19.89;62.76
14242;BME280;7205;50.864;12.766;2022-09-12T10:32:08;97789.56;;;19.70;63.09
14242;BME280;7205;50.864;12.766;2022-09-12T10:34:43;97786.13;;;19.52;63.00
14242;BME280;7205;50.864;12.766;2022-09-12T10:37:17;97780.50;;;19.42;63.49
14242;BME280;7205;50.864;12.766;2022-09-12T10:39:50;97776.25;;;19.34;64.39
14242;BME280;7205;50.864;12.766;2022-09-12T10:42:43;97777.16;;;19.28;65.55
14242;BME280;7205;50.864;12.766;2022-09-12T10:45:25;97779.00;;;19.28;65.77
14242;BME280;7205;50.864;12.766;2022-09-12T10:47:54;97772.44;;;19.30;66.34
14242;BME280;7205;50.864;12.766;2022-09-12T10:50:28;97766.84;;;19.32;66.04
14242;BME280;7205;50.864;12.766;2022-09-12T10:53:13;97770.47;;;19.37;65.29
14242;BME280;7205;50.864;12.766;2022-09-12T10:55:44;97769.09;;;19.46;63.18
14242;BME280;7205;50.864;12.766;2022-09-12T10:58:35;97770.06;;;19.52;60.58
14242;BME280;7205;50.864;12.766;2022-09-12T11:01:19;97766.34;;;19.64;59.52
14242;BME280;7205;50.864;12.766;2022-09-12T11:04:03;97763.47;;;19.77;59.20
14242;BME280;7205;50.864;12.766;2022-09-12T11:06:42;97769.00;;;19.94;58.95
14242;BME280;7205;50.864;12.766;2022-09-12T11:09:18;97770.84;;;20.05;58.61
14242;BME280;7205;50.864;12.766;2022-09-12T11:11:57;97766.13;;;20.19;58.30
14242;BME280;7205;50.864;12.766;2022-09-12T11:14:39;97761.94;;;20.34;57.22
14242;BME280;7205;50.864;12.766;2022-09-12T11:17:21;97757.59;;;20.56;57.15
14242;BME280;7205;50.864;12.766;2022-09-12T11:20:01;97764.56;;;20.80;56.66
14242;BME280;7205;50.864;12.766;2022-09-12T11:22:39;97753.22;;;21.01;56.53
14242;BME280;7205;50.864;12.766;2022-09-12T11:25:17;97751.16;;;21.20;55.84
14242;BME280;7205;50.864;12.766;2022-09-12T11:28:02;97754.50;;;21.27;53.57
14242;BME280;7205;50.864;12.766;2022-09-12T11:30:36;97760.38;;;21.24;52.38
14242;BME280;7205;50.864;12.766;2022-09-12T11:33:23;97754.91;;;21.19;52.43
14242;BME280;7205;50.864;12.766;2022-09-12T11:35:54;97753.63;;;21.22;52.04
14242;BME280;7205;50.864;12.766;2022-09-12T11:41:21;97746.34;;;21.22;51.85
14242;BME280;7205;50.864;12.766;2022-09-12T11:43:54;97748.91;;;21.29;52.45
14242;BME280;7205;50.864;12.766;2022-09-12T11:46:28;97747.72;;;21.36;52.91
14242;BME280;7205;50.864;12.766;2022-09-12T11:49:00;97753.19;;;21.41;53.34
14242;BME280;7205;50.864;12.766;2022-09-12T11:51:36;97745.78;;;21.48;53.36
14242;BME280;7205;50.864;12.766;2022-09-12T11:54:14;97746.91;;;21.52;53.25
14242;BME280;7205;50.864;12.766;2022-09-12T11:56:45;97744.56;;;21.56;53.38
14242;BME280;7205;50.864;12.766;2022-09-12T11:59:29;97750.75;;;21.56;53.08
14242;BME280;7205;50.864;12.766;2022-09-12T12:01:58;97746.50;;;21.60;52.73
14242;BME280;7205;50.864;12.766;2022-09-12T12:04:31;97735.22;;;21.58;52.66
14242;BME280;7205;50.864;12.766;2022-09-12T12:07:02;97742.69;;;21.56;52.26
14242;BME280;7205;50.864;12.766;2022-09-12T12:09:32;97747.91;;;21.46;51.91
14242;BME280;7205;50.864;12.766;2022-09-12T12:12:04;97742.56;;;21.35;51.48
14242;BME280;7205;50.864;12.766;2022-09-12T12:14:37;97739.13;;;21.23;51.86
14242;BME280;7205;50.864;12.766;2022-09-12T12:17:13;97746.25;;;21.17;51.75
14242;BME280;7205;50.864;12.766;2022-09-12T12:19:41;97740.78;;;21.12;51.59
14242;BME280;7205;50.864;12.766;2022-09-12T12:22:14;97733.34;;;21.02;51.52
14242;BME280;7205;50.864;12.766;2022-09-12T12:25:04;97733.94;;;20.93;51.97
14242;BME280;7205;50.864;12.766;2022-09-12T12:27:50;97734.66;;;20.88;51.74
14242;BME280;7205;50.864;12.766;2022-09-12T12:34:03;97730.63;;;20.74;50.84
14242;BME280;7205;50.864;12.766;2022-09-12T12:36:34;97729.53;;;20.75;50.62
14242;BME280;7205;50.864;12.766;2022-09-12T12:46:06;97719.31;;;21.12;51.52
14242;BME280;7205;50.864;12.766;2022-09-12T12:48:49;97722.22;;;21.39;51.89
14242;BME280;7205;50.864;12.766;2022-09-12T12:54:47;97707.31;;;21.92;51.20
14242;BME280;7205;50.864;12.766;2022-09-12T12:57:25;97705.81;;;22.18;50.47
14242;BME280;7205;50.864;12.766;2022-09-12T12:59:55;97700.72;;;22.38;48.66
14242;BME280;7205;50.864;12.766;2022-09-12T13:02:27;97704.84;;;22.46;48.06
14242;BME280;7205;50.864;12.766;2022-09-12T13:04:55;97698.09;;;22.43;47.87
14242;BME280;7205;50.864;12.766;2022-09-12T13:07:27;97694.44;;;22.32;47.30
14242;BME280;7205;50.864;12.766;2022-09-12T13:09:55;97690.25;;;22.20;47.86
14242;BME280;7205;50.864;12.766;2022-09-12T13:12:27;97693.59;;;22.10;48.59
14242;BME280;7205;50.864;12.766;2022-09-12T13:14:55;97695.16;;;22.06;48.52
14242;BME280;7205;50.864;12.766;2022-09-12T13:17:30;97684.56;;;22.00;48.31
14242;BME280;7205;50.864;12.766;2022-09-12T13:20:05;97693.13;;;21.97;48.39
14242;BME280;7205;50.864;12.766;2022-09-12T13:22:42;97695.25;;;21.95;48.81
14242;BME280;7205;50.864;12.766;2022-09-12T13:25:24;97683.41;;;21.96;49.30
14242;BME280;7205;50.864;12.766;2022-09-12T13:28:05;97683.19;;;21.97;48.41
14242;BME280;7205;50.864;12.766;2022-09-12T13:30:34;97672.50;;;22.02;48.37
14242;BME280;7205;50.864;12.766;2022-09-12T13:33:09;97680.06;;;22.05;48.53
14242;BME280;7205;50.864;12.766;2022-09-12T13:35:45;97680.13;;;22.10;48.66
14242;BME280;7205;50.864;12.766;2022-09-12T13:38:20;97672.63;;;22.12;48.41